Time;durP1;ratioP1;P1;durP2;ratioP2;P2;SDS_P1;SDS_P2;PMS_P1;PMS_P2;Temp;Humidity;BMP_temperature;BMP_pressure;BME280_temperature;BME280_humidity;BME280_pressure;Samples;Min_cycle;Max_cycle;Signal;HPM_P1;HPM_P2
2024/02/15 00:00:32;;;;;;;6.43;5.93;;;12.30;99.90;;;;;;5006534;28;20478;-82
2024/02/15 00:03:01;;;;;;;4.30;4.10;;;12.30;99.90;;;;;;5001559;28;20515;-80
2024/02/15 00:05:30;;;;;;;4.53;4.23;;;12.30;99.90;;;;;;4998295;28;20558;-80
2024/02/15 00:07:59;;;;;;;5.40;4.90;;;12.30;99.90;;;;;;4999595;28;21552;-83
2024/02/15 00:10:27;;;;;;;3.50;3.40;;;12.20;99.90;;;;;;5001194;28;20453;-81
2024/02/15 00:12:56;;;;;;;4.10;4.00;;;12.20;99.90;;;;;;5006784;28;21877;-83
2024/02/15 00:15:24;;;;;;;4.00;3.80;;;12.20;99.90;;;;;;5009270;28;20456;-85
2024/02/15 00:17:52;;;;;;;4.60;3.97;;;12.30;99.90;;;;;;5004800;28;20485;-81
2024/02/15 00:20:21;;;;;;;4.00;3.90;;;12.20;99.90;;;;;;5011500;28;20451;-82
2024/02/15 00:22:52;;;;;;;4.47;3.90;;;12.20;99.90;;;;;;5010337;28;20461;-82
2024/02/15 00:25:20;;;;;;;4.50;4.10;;;12.20;99.90;;;;;;5004229;28;20500;-83
2024/02/15 00:27:48;;;;;;;3.67;3.57;;;12.20;99.90;;;;;;5003207;28;20449;-80
2024/02/15 00:30:17;;;;;;;3.73;3.53;;;12.30;99.90;;;;;;5004431;28;20461;-83
2024/02/15 00:32:46;;;;;;;3.87;3.57;;;12.20;99.90;;;;;;5006417;28;20462;-81
2024/02/15 00:35:15;;;;;;;3.83;3.70;;;12.20;99.90;;;;;;5004683;28;20446;-84
2024/02/15 00:37:44;;;;;;;3.90;3.73;;;12.20;99.90;;;;;;5006822;28;20559;-82
2024/02/15 00:40:14;;;;;;;3.77;3.57;;;12.20;99.90;;;;;;5005960;28;20477;-81
2024/02/15 00:42:42;;;;;;;4.10;3.90;;;12.10;99.90;;;;;;5006308;28;20534;-82
2024/02/15 00:45:10;;;;;;;3.50;3.40;;;12.20;99.90;;;;;;5005847;28;20501;-80
2024/02/15 00:47:41;;;;;;;4.90;3.43;;;12.10;99.90;;;;;;4991674;28;20462;-83
2024/02/15 00:50:11;;;;;;;4.40;3.57;;;12.10;99.90;;;;;;5006016;28;20464;-82
2024/02/15 00:52:39;;;;;;;3.50;3.30;;;12.10;99.90;;;;;;5007714;28;20517;-80
2024/02/15 00:55:08;;;;;;;4.00;3.63;;;12.10;99.90;;;;;;5009556;28;20824;-81
2024/02/15 00:57:37;;;;;;;3.60;3.50;;;12.10;99.90;;;;;;5005585;28;20503;-80
2024/02/15 01:00:09;;;;;;;3.83;3.57;;;12.00;99.90;;;;;;5011146;28;20457;-82
2024/02/15 01:02:37;;;;;;;3.60;3.50;;;12.00;99.90;;;;;;5008301;28;20524;-81
2024/02/15 01:05:06;;;;;;;3.63;3.40;;;12.00;99.90;;;;;;5012193;28;20959;-82
2024/02/15 01:07:34;;;;;;;3.57;3.37;;;12.00;99.90;;;;;;5003480;28;20464;-80
2024/02/15 01:10:03;;;;;;;3.70;3.60;;;12.00;99.90;;;;;;5021121;28;20549;-84
2024/02/15 01:12:31;;;;;;;4.20;4.10;;;12.00;99.90;;;;;;5005879;28;20468;-82
2024/02/15 01:15:00;;;;;;;4.10;3.90;;;11.90;99.90;;;;;;5006609;28;20591;-82
2024/02/15 01:17:28;;;;;;;4.17;3.97;;;11.90;99.90;;;;;;5004303;28;20553;-83
2024/02/15 01:19:57;;;;;;;4.07;3.87;;;11.80;99.90;;;;;;5005370;28;20474;-82
2024/02/15 01:22:26;;;;;;;4.20;3.93;;;11.90;99.90;;;;;;5006352;28;20571;-82
2024/02/15 01:24:58;;;;;;;3.90;3.80;;;11.90;99.90;;;;;;5007924;28;20500;-79
2024/02/15 01:27:30;;;;;;;3.57;3.43;;;11.90;99.90;;;;;;5006668;28;20469;-81
2024/02/15 01:29:59;;;;;;;3.60;3.47;;;11.90;99.90;;;;;;5008414;28;20501;-82
2024/02/15 01:32:28;;;;;;;3.50;3.40;;;11.90;99.90;;;;;;5008034;28;20442;-79
2024/02/15 01:34:56;;;;;;;3.43;3.33;;;11.90;99.90;;;;;;5008167;28;20512;-82
2024/02/15 01:37:24;;;;;;;4.53;3.70;;;11.90;99.90;;;;;;5005808;28;20472;-82
2024/02/15 01:39:52;;;;;;;4.30;4.10;;;11.90;99.90;;;;;;5007488;28;20466;-82
2024/02/15 01:42:20;;;;;;;3.70;3.50;;;11.90;99.90;;;;;;5011236;28;20496;-83
2024/02/15 01:44:49;;;;;;;4.13;3.80;;;11.90;99.90;;;;;;5004104;28;20483;-83
2024/02/15 01:47:20;;;;;;;3.30;3.20;;;11.80;99.90;;;;;;5002677;28;21052;-82
2024/02/15 01:49:49;;;;;;;3.83;3.63;;;11.80;99.90;;;;;;5016460;28;20477;-85
2024/02/15 01:52:18;;;;;;;3.60;3.50;;;11.70;99.90;;;;;;5010243;28;20437;-82
2024/02/15 01:54:47;;;;;;;3.07;2.97;;;11.80;99.90;;;;;;5003532;28;20447;-83
2024/02/15 01:57:16;;;;;;;3.67;3.57;;;11.70;99.90;;;;;;5010167;28;20454;-82
2024/02/15 01:59:44;;;;;;;4.23;3.70;;;11.60;99.90;;;;;;5004071;28;20478;-82
2024/02/15 02:02:15;;;;;;;3.63;3.40;;;11.70;99.90;;;;;;5004295;28;20477;-83
2024/02/15 02:04:51;;;;;;;3.43;3.20;;;11.60;99.90;;;;;;5006037;28;20453;-83
2024/02/15 02:07:19;;;;;;;3.20;3.00;;;11.60;99.90;;;;;;5002495;28;20465;-83
2024/02/15 02:09:48;;;;;;;3.93;3.00;;;11.60;99.90;;;;;;5004329;28;20469;-82
2024/02/15 02:12:17;;;;;;;3.10;2.90;;;11.60;99.90;;;;;;5002964;28;20462;-81
2024/02/15 02:14:46;;;;;;;4.43;3.60;;;11.60;99.90;;;;;;5004774;28;20998;-83
2024/02/15 02:17:14;;;;;;;3.43;3.33;;;11.60;99.90;;;;;;5004758;28;20959;-83
2024/02/15 02:19:43;;;;;;;3.10;2.90;;;11.60;99.90;;;;;;5007041;28;20586;-83
2024/02/15 02:22:14;;;;;;;3.27;3.17;;;11.50;99.90;;;;;;5003002;28;20469;-83
2024/02/15 02:24:56;;;;;;;3.17;3.07;;;11.40;99.90;;;;;;5004122;28;20907;-83
2024/02/15 02:27:25;;;;;;;3.27;3.07;;;11.40;99.90;;;;;;5003361;28;20441;-83
2024/02/15 02:29:53;;;;;;;3.40;3.20;;;11.40;99.90;;;;;;5002328;28;20512;-83
2024/02/15 02:32:21;;;;;;;3.63;3.20;;;11.40;99.90;;;;;;5003171;28;20465;-82
2024/02/15 02:34:50;;;;;;;3.50;3.27;;;11.40;99.90;;;;;;5007884;28;20450;-82
2024/02/15 02:37:18;;;;;;;3.00;2.90;;;11.40;99.90;;;;;;5004073;28;20452;-82
2024/02/15 02:39:46;;;;;;;3.27;3.10;;;11.40;99.90;;;;;;5003309;28;20466;-83
2024/02/15 02:42:16;;;;;;;3.10;2.90;;;11.30;99.90;;;;;;5007836;28;20470;-83
2024/02/15 02:44:44;;;;;;;3.20;2.90;;;11.30;99.90;;;;;;5003525;28;20454;-82
2024/02/15 02:47:13;;;;;;;3.43;3.27;;;11.30;99.90;;;;;;4998863;28;20469;-83
2024/02/15 02:49:42;;;;;;;3.67;3.47;;;11.30;99.90;;;;;;5008621;28;20500;-83
2024/02/15 02:52:10;;;;;;;3.93;3.63;;;11.20;99.90;;;;;;5005720;28;20505;-83
2024/02/15 02:54:38;;;;;;;3.47;3.37;;;11.20;99.90;;;;;;5006833;28;22340;-82
2024/02/15 02:57:07;;;;;;;3.17;3.07;;;11.20;99.90;;;;;;5003032;28;20849;-82
2024/02/15 02:59:39;;;;;;;3.50;3.20;;;11.20;99.90;;;;;;5005893;28;20473;-84
2024/02/15 03:02:08;;;;;;;3.27;3.10;;;11.20;99.90;;;;;;5005564;28;20802;-84
2024/02/15 03:04:38;;;;;;;3.50;3.23;;;11.10;99.90;;;;;;5007122;28;20466;-83
2024/02/15 03:07:07;;;;;;;3.30;3.10;;;11.10;99.90;;;;;;5007466;28;20454;-84
2024/02/15 03:09:37;;;;;;;3.33;3.13;;;11.10;99.90;;;;;;5006852;28;20546;-84
2024/02/15 03:12:05;;;;;;;5.00;3.63;;;11.10;99.90;;;;;;5008830;28;20464;-84
2024/02/15 03:14:35;;;;;;;3.17;3.07;;;11.10;99.90;;;;;;5009588;28;20482;-82
2024/02/15 03:17:05;;;;;;;5.53;3.40;;;11.00;99.90;;;;;;5010313;28;20442;-84
2024/02/15 03:19:34;;;;;;;3.30;3.20;;;11.00;99.90;;;;;;5011080;28;20516;-84
2024/02/15 03:22:02;;;;;;;4.90;3.60;;;11.00;99.90;;;;;;4992831;28;20820;-84
2024/02/15 03:24:30;;;;;;;3.10;3.00;;;10.90;99.90;;;;;;5008745;28;20470;-82
2024/02/15 03:26:58;;;;;;;3.47;3.27;;;10.90;99.90;;;;;;5010341;28;20449;-82
2024/02/15 03:29:26;;;;;;;2.80;2.70;;;10.90;99.90;;;;;;5016670;28;20483;-82
2024/02/15 03:31:55;;;;;;;3.03;2.93;;;10.80;99.90;;;;;;5008719;28;20469;-83
2024/02/15 03:34:25;;;;;;;3.37;3.17;;;10.80;99.90;;;;;;5011098;28;20480;-84
2024/02/15 03:36:54;;;;;;;4.00;3.70;;;10.70;99.90;;;;;;5012623;28;20442;-81
2024/02/15 03:39:23;;;;;;;3.10;3.00;;;10.70;99.90;;;;;;5013522;28;20461;-82
2024/02/15 03:41:53;;;;;;;3.60;3.40;;;10.70;99.90;;;;;;5011138;28;20509;-83
2024/02/15 03:44:22;;;;;;;3.53;3.10;;;10.80;99.90;;;;;;5011652;28;20449;-80
2024/02/15 03:46:51;;;;;;;5.37;3.53;;;10.70;99.90;;;;;;5007872;28;20545;-84
2024/02/15 03:49:21;;;;;;;3.67;3.33;;;10.70;99.90;;;;;;5007287;28;20473;-82
2024/02/15 03:51:50;;;;;;;3.90;3.70;;;10.70;99.90;;;;;;5009943;28;20450;-83
2024/02/15 03:54:19;;;;;;;3.60;3.33;;;10.70;99.90;;;;;;4991294;28;20576;-83
2024/02/15 03:56:52;;;;;;;4.17;3.83;;;10.70;99.90;;;;;;5012087;28;20446;-82
2024/02/15 03:59:24;;;;;;;3.10;3.00;;;10.70;99.90;;;;;;5009974;28;20461;-84
2024/02/15 04:01:53;;;;;;;3.50;3.40;;;10.60;99.90;;;;;;5009182;28;20947;-82
2024/02/15 04:04:22;;;;;;;3.97;3.67;;;10.50;99.90;;;;;;5004535;28;20477;-83
2024/02/15 04:06:52;;;;;;;3.90;3.50;;;10.60;99.90;;;;;;5007545;28;20943;-81
2024/02/15 04:09:21;;;;;;;3.40;3.30;;;10.60;99.90;;;;;;5011506;28;20465;-84
2024/02/15 04:11:52;;;;;;;3.47;3.27;;;10.60;99.90;;;;;;5008658;28;20533;-84
2024/02/15 04:14:22;;;;;;;3.77;3.57;;;10.60;99.90;;;;;;5007403;28;20541;-83
2024/02/15 04:16:50;;;;;;;3.90;3.70;;;10.60;99.90;;;;;;5010856;28;20453;-82
2024/02/15 04:19:19;;;;;;;3.23;3.13;;;10.60;99.90;;;;;;5010545;28;20505;-83
2024/02/15 04:21:48;;;;;;;3.10;3.00;;;10.50;99.90;;;;;;5010015;28;20466;-83
2024/02/15 04:24:17;;;;;;;3.43;3.23;;;10.50;99.90;;;;;;5008281;28;20475;-83
2024/02/15 04:26:48;;;;;;;3.40;3.10;;;10.50;99.90;;;;;;5010340;28;20450;-83
2024/02/15 04:29:17;;;;;;;3.17;2.97;;;10.60;1.00;;;;;;5006211;28;21241;-83
2024/02/15 04:31:49;;;;;;;3.17;2.97;;;10.50;99.90;;;;;;5011339;28;20525;-81
2024/02/15 04:34:17;;;;;;;3.10;2.93;;;10.60;99.90;;;;;;5008481;28;20492;-85
2024/02/15 04:36:49;;;;;;;3.80;3.60;;;10.50;99.90;;;;;;5007499;28;20456;-84
2024/02/15 04:39:24;;;;;;;3.37;3.27;;;10.50;99.90;;;;;;5006583;28;20473;-83
2024/02/15 04:41:52;;;;;;;3.33;3.10;;;10.50;99.90;;;;;;5006140;28;20445;-83
2024/02/15 04:44:21;;;;;;;3.37;3.27;;;10.50;99.90;;;;;;5010651;28;20473;-83
2024/02/15 04:46:50;;;;;;;3.57;3.37;;;10.50;1.00;;;;;;4995039;28;20508;-81
2024/02/15 04:49:18;;;;;;;3.40;3.23;;;10.50;1.00;;;;;;5009221;28;20469;-84
2024/02/15 04:51:47;;;;;;;3.70;3.50;;;10.50;1.00;;;;;;5007202;28;20452;-83
2024/02/15 04:54:18;;;;;;;3.40;3.20;;;10.50;1.00;;;;;;5005925;28;20509;-82
2024/02/15 04:56:47;;;;;;;3.30;3.20;;;10.60;1.00;;;;;;5009907;28;20446;-84
2024/02/15 04:59:15;;;;;;;3.70;3.50;;;10.50;99.90;;;;;;5006760;28;20470;-81
2024/02/15 05:01:45;;;;;;;3.10;3.00;;;10.50;99.90;;;;;;5005226;28;20504;-84
2024/02/15 05:04:14;;;;;;;3.93;3.57;;;10.50;1.00;;;;;;5007857;28;20555;-82
2024/02/15 05:06:42;;;;;;;4.43;3.53;;;10.50;99.90;;;;;;5004921;28;20458;-82
2024/02/15 05:09:10;;;;;;;3.30;3.10;;;10.50;99.90;;;;;;4989935;28;20466;-83
2024/02/15 05:11:41;;;;;;;3.57;3.37;;;10.50;99.90;;;;;;5009142;28;20453;-83
2024/02/15 05:14:11;;;;;;;3.53;3.33;;;10.40;1.00;;;;;;5007750;28;21086;-82
2024/02/15 05:16:42;;;;;;;3.60;3.40;;;10.40;1.00;;;;;;5002827;28;20467;-83
2024/02/15 05:19:12;;;;;;;3.73;3.37;;;10.50;1.00;;;;;;4986018;28;20485;-84
2024/02/15 05:21:40;;;;;;;3.37;3.17;;;10.60;99.90;;;;;;5006777;28;20462;-83
2024/02/15 05:24:09;;;;;;;3.33;3.20;;;10.50;99.90;;;;;;5003825;28;20580;-84
2024/02/15 05:26:37;;;;;;;3.70;3.50;;;10.50;99.90;;;;;;5010652;28;20524;-82
2024/02/15 05:29:05;;;;;;;3.67;3.47;;;10.50;99.90;;;;;;5005078;28;20509;-83
2024/02/15 05:31:37;;;;;;;6.17;5.63;;;10.50;99.90;;;;;;5001936;28;20450;-84
2024/02/15 05:34:11;;;;;;;4.00;3.60;;;10.40;99.90;;;;;;5006849;28;20486;-82
2024/02/15 05:36:40;;;;;;;3.43;3.20;;;10.40;99.90;;;;;;5005665;28;20596;-82
2024/02/15 05:39:11;;;;;;;3.93;3.70;;;10.40;99.90;;;;;;5001295;28;20469;-81
2024/02/15 05:41:40;;;;;;;3.43;3.20;;;10.50;99.90;;;;;;5004822;28;20462;-83
2024/02/15 05:44:09;;;;;;;3.70;3.50;;;10.50;99.90;;;;;;5007396;28;20473;-83
2024/02/15 05:46:39;;;;;;;3.30;3.10;;;10.40;99.90;;;;;;5003179;28;20450;-82
2024/02/15 05:49:13;;;;;;;3.50;3.40;;;10.50;99.90;;;;;;4996555;28;20584;-80
2024/02/15 05:51:41;;;;;;;3.73;3.60;;;10.40;99.90;;;;;;5005587;28;20823;-82
2024/02/15 05:54:12;;;;;;;3.83;3.60;;;10.40;99.90;;;;;;5010902;28;20581;-85
2024/02/15 05:56:42;;;;;;;3.90;3.70;;;10.50;99.90;;;;;;5010408;28;20444;-82
2024/02/15 05:59:11;;;;;;;3.50;3.30;;;10.50;99.90;;;;;;5003981;28;20469;-82
2024/02/15 06:01:41;;;;;;;3.40;3.20;;;10.40;99.90;;;;;;5005929;28;20932;-84
2024/02/15 06:04:10;;;;;;;3.40;3.30;;;10.40;99.90;;;;;;5005093;28;20475;-83
2024/02/15 06:06:39;;;;;;;3.23;3.03;;;10.50;99.90;;;;;;5002484;28;20442;-81
2024/02/15 06:09:07;;;;;;;3.77;3.40;;;10.50;99.90;;;;;;5001293;28;20493;-82
2024/02/15 06:11:37;;;;;;;3.00;2.90;;;10.50;99.90;;;;;;5009162;28;20450;-82
2024/02/15 06:14:06;;;;;;;4.03;3.73;;;10.50;99.90;;;;;;4989681;28;20450;-81
2024/02/15 06:16:34;;;;;;;3.80;3.50;;;10.50;99.90;;;;;;4987783;28;20853;-83
2024/02/15 06:19:04;;;;;;;5.37;3.70;;;10.50;99.90;;;;;;5001888;28;21291;-81
2024/02/15 06:21:32;;;;;;;4.20;4.00;;;10.60;99.90;;;;;;5008981;28;20454;-84
2024/02/15 06:24:00;;;;;;;9.30;8.40;;;10.60;99.90;;;;;;5005471;28;21034;-83
2024/02/15 06:26:28;;;;;;;7.43;6.80;;;10.60;99.90;;;;;;5006043;28;20457;-82
2024/02/15 06:40:22;;;;;;;4.03;3.80;;;10.50;99.90;;;;;;5007514;28;20458;-83
2024/02/15 06:42:51;;;;;;;3.50;3.40;;;10.50;99.90;;;;;;5006979;28;20554;-82
2024/02/15 06:45:19;;;;;;;4.00;3.80;;;10.50;99.90;;;;;;5013034;28;20480;-82
2024/02/15 06:47:48;;;;;;;3.50;3.20;;;10.50;99.90;;;;;;5010502;28;20460;-82
2024/02/15 06:50:17;;;;;;;3.57;3.30;;;10.40;99.90;;;;;;5007891;28;20462;-82
2024/02/15 06:52:46;;;;;;;3.33;3.13;;;10.50;99.90;;;;;;5013934;28;20450;-83
2024/02/15 06:55:14;;;;;;;4.03;3.83;;;10.50;99.90;;;;;;5011468;28;20449;-81
2024/02/15 06:57:43;;;;;;;3.50;3.27;;;10.50;99.90;;;;;;5006461;28;20453;-80
2024/02/15 07:00:15;;;;;;;4.20;3.80;;;10.50;99.90;;;;;;4997112;28;20834;-84
2024/02/15 07:02:44;;;;;;;3.93;3.63;;;10.50;99.90;;;;;;5011078;28;20457;-84
2024/02/15 07:05:13;;;;;;;4.27;4.07;;;10.50;96.70;;;;;;5010578;28;20482;-83
2024/02/15 07:07:42;;;;;;;3.30;3.10;;;10.50;99.90;;;;;;5008500;28;20478;-82
2024/02/15 07:10:13;;;;;;;3.90;3.67;;;10.60;99.90;;;;;;5007620;28;20461;-83
2024/02/15 07:12:43;;;;;;;3.87;3.57;;;10.60;89.90;;;;;;5010444;28;20454;-82
2024/02/15 07:15:11;;;;;;;3.60;3.33;;;10.60;68.30;;;;;;5006840;28;20492;-82
2024/02/15 07:17:40;;;;;;;4.13;3.77;;;10.70;68.60;;;;;;5011045;28;20446;-81
2024/02/15 07:20:11;;;;;;;3.67;3.43;;;10.70;54.50;;;;;;5012483;28;21057;-82
2024/02/15 07:22:39;;;;;;;4.07;3.70;;;10.70;60.80;;;;;;5011468;28;20457;-81
2024/02/15 07:25:10;;;;;;;4.53;4.23;;;10.80;44.70;;;;;;5010862;28;20752;-83
2024/02/15 07:27:38;;;;;;;5.90;5.40;;;10.80;53.30;;;;;;5007134;28;21245;-81
2024/02/15 07:30:08;;;;;;;4.63;4.13;;;10.90;80.00;;;;;;5006978;28;20478;-82
2024/02/15 07:32:37;;;;;;;4.73;4.43;;;10.90;99.70;;;;;;5011786;28;20568;-81
2024/02/15 07:35:07;;;;;;;4.00;3.73;;;11.00;87.60;;;;;;5008483;28;20458;-81
2024/02/15 07:37:36;;;;;;;4.07;3.77;;;11.10;58.60;;;;;;5005274;28;21299;-81
2024/02/15 07:40:07;;;;;;;3.90;3.70;;;11.10;1.00;;;;;;5007270;28;20857;-81
2024/02/15 07:42:37;;;;;;;4.23;3.73;;;11.20;6.10;;;;;;5004870;28;20461;-81
2024/02/15 07:45:06;;;;;;;3.90;3.60;;;11.40;1.00;;;;;;5007429;28;20477;-82
2024/02/15 07:47:35;;;;;;;3.63;3.37;;;11.60;1.00;;;;;;5003020;28;20470;-80
2024/02/15 07:50:05;;;;;;;3.23;3.03;;;11.80;1.00;;;;;;5001858;28;20477;-82
2024/02/15 07:52:34;;;;;;;3.70;3.37;;;11.90;1.00;;;;;;5005850;28;20447;-81
2024/02/15 07:55:08;;;;;;;3.20;3.00;;;12.10;1.00;;;;;;5007246;28;20452;-82
2024/02/15 07:57:38;;;;;;;3.07;2.87;;;12.30;1.00;;;;;;5001583;28;20865;-82
2024/02/15 08:00:10;;;;;;;2.83;2.73;;;12.20;1.00;;;;;;5008077;28;20564;-83
2024/02/15 08:02:41;;;;;;;3.60;3.37;;;12.20;1.00;;;;;;5005500;28;20457;-81
2024/02/15 08:05:11;;;;;;;3.50;3.20;;;12.20;1.00;;;;;;5005788;28;20873;-82
2024/02/15 08:07:43;;;;;;;3.63;3.33;;;12.20;1.00;;;;;;5005403;28;20529;-80
2024/02/15 08:10:13;;;;;;;3.63;3.43;;;12.20;1.00;;;;;;5012361;28;20449;-84
2024/02/15 08:12:44;;;;;;;3.10;2.80;;;12.20;1.00;;;;;;5012179;28;21025;-83
2024/02/15 08:15:13;;;;;;;2.90;2.70;;;12.30;1.00;;;;;;5010028;28;20461;-82
2024/02/15 08:17:43;;;;;;;3.10;2.90;;;12.30;1.00;;;;;;5008886;28;20462;-81
2024/02/15 08:20:13;;;;;;;3.17;2.90;;;12.40;1.00;;;;;;5007131;28;21034;-82
2024/02/15 08:22:43;;;;;;;3.90;3.60;;;12.40;1.00;;;;;;5011631;28;20449;-82
2024/02/15 08:25:13;;;;;;;3.50;3.30;;;12.50;1.00;;;;;;5006698;28;21057;-82
2024/02/15 08:27:44;;;;;;;5.57;3.37;;;12.60;1.00;;;;;;5005157;28;20807;-81
2024/02/15 08:30:14;;;;;;;3.50;3.30;;;12.60;1.00;;;;;;5008340;28;20463;-84
2024/02/15 08:32:45;;;;;;;2.93;2.73;;;12.40;1.00;;;;;;5008218;28;20460;-83
2024/02/15 08:35:14;;;;;;;3.33;2.87;;;12.60;1.00;;;;;;5010524;28;20454;-80
2024/02/15 08:37:43;;;;;;;2.73;2.50;;;12.50;1.00;;;;;;5007888;28;20457;-83
2024/02/15 08:40:13;;;;;;;3.50;3.20;;;12.50;1.00;;;;;;5009336;28;20840;-81
2024/02/15 08:42:43;;;;;;;2.90;2.80;;;12.50;1.00;;;;;;5006511;28;20485;-81
2024/02/15 08:45:12;;;;;;;3.00;2.90;;;12.50;1.00;;;;;;4993926;28;20478;-82
2024/02/15 08:47:42;;;;;;;3.27;3.17;;;12.60;1.00;;;;;;5006234;28;20508;-78
2024/02/15 08:50:12;;;;;;;3.27;2.93;;;12.60;1.00;;;;;;5007310;28;20512;-80
2024/02/15 08:52:41;;;;;;;4.00;3.40;;;12.70;1.00;;;;;;5006694;28;20451;-80
2024/02/15 08:55:10;;;;;;;2.93;2.83;;;12.80;1.00;;;;;;5016815;28;20464;-82
2024/02/15 08:57:40;;;;;;;3.47;3.20;;;12.90;1.00;;;;;;5005139;28;20492;-81
2024/02/15 09:00:13;;;;;;;3.37;2.90;;;12.90;99.90;;;;;;5003273;28;20479;-81
2024/02/15 09:02:42;;;;;;;3.50;3.30;;;13.10;99.90;;;;;;5003502;28;20625;-81
2024/02/15 09:05:13;;;;;;;3.50;3.30;;;13.50;99.90;;;;;;5008418;28;20469;-79
2024/02/15 09:07:43;;;;;;;3.00;2.90;;;13.80;99.90;;;;;;5000253;28;20465;-80
2024/02/15 09:10:12;;;;;;;3.40;3.10;;;14.30;99.90;;;;;;5003195;28;20513;-83
2024/02/15 09:12:41;;;;;;;3.40;3.10;;;14.50;99.90;;;;;;5005527;28;20441;-79
2024/02/15 09:15:12;;;;;;;3.37;3.13;;;14.90;99.90;;;;;;5005080;28;20453;-80
2024/02/15 09:17:40;;;;;;;7.03;2.90;;;15.30;99.90;;;;;;5021001;28;20556;-80
2024/02/15 09:20:14;;;;;;;3.23;2.93;;;15.60;99.90;;;;;;4986366;28;20492;-80
2024/02/15 09:22:46;;;;;;;2.77;2.60;;;15.70;99.90;;;;;;5007424;28;20462;-80
2024/02/15 09:25:14;;;;;;;2.90;2.80;;;15.80;99.90;;;;;;5005090;28;20512;-79
2024/02/15 09:27:43;;;;;;;2.70;2.50;;;15.80;99.90;;;;;;5002107;28;20923;-80
2024/02/15 09:30:14;;;;;;;2.70;2.43;;;16.10;99.90;;;;;;5017089;28;21046;-82
2024/02/15 09:32:44;;;;;;;2.87;2.73;;;16.20;99.90;;;;;;5000714;28;20438;-79
2024/02/15 09:35:13;;;;;;;3.40;3.20;;;16.50;99.90;;;;;;5000860;28;20458;-81
2024/02/15 09:37:45;;;;;;;2.50;2.40;;;16.90;99.90;;;;;;4996525;28;20461;-79
2024/02/15 09:40:15;;;;;;;2.23;2.03;;;17.30;99.90;;;;;;4997209;28;20447;-80
2024/02/15 09:42:44;;;;;;;2.23;2.10;;;17.70;99.90;;;;;;4999360;28;20482;-81
2024/02/15 09:45:16;;;;;;;2.50;2.30;;;18.10;99.90;;;;;;4983705;28;21248;-83
2024/02/15 09:47:45;;;;;;;2.17;1.97;;;18.50;99.90;;;;;;5000713;28;20990;-81
2024/02/15 09:50:16;;;;;;;2.40;2.03;;;18.90;99.90;;;;;;5000528;28;20979;-81
2024/02/15 09:52:46;;;;;;;2.00;1.90;;;19.40;99.90;;;;;;4997443;28;20450;-81
2024/02/15 09:55:15;;;;;;;2.10;1.70;;;19.70;99.90;;;;;;4999703;28;20497;-80
2024/02/15 09:57:46;;;;;;;2.60;2.40;;;20.10;99.90;;;;;;4994197;28;20518;-80
2024/02/15 10:00:16;;;;;;;1.80;1.67;;;20.30;99.90;;;;;;4998335;28;20544;-82
2024/02/15 10:02:48;;;;;;;1.70;1.60;;;20.40;99.90;;;;;;5000967;28;20486;-80
2024/02/15 10:05:19;;;;;;;1.70;1.60;;;20.50;99.90;;;;;;4982732;28;20992;-80
2024/02/15 10:07:48;;;;;;;1.87;1.70;;;20.60;99.90;;;;;;4979723;28;21544;-82
2024/02/15 10:10:19;;;;;;;2.07;1.87;;;20.70;99.90;;;;;;4999123;28;20453;-80
2024/02/15 10:12:49;;;;;;;3.77;1.90;;;20.80;99.90;;;;;;4999551;28;21024;-79
2024/02/15 10:15:33;;;;;;;1.80;1.70;;;21.20;99.90;;;;;;5005902;28;20478;-80
2024/02/15 10:18:03;;;;;;;1.80;1.70;;;21.60;99.90;;;;;;5002238;28;20951;-81
2024/02/15 10:20:34;;;;;;;1.60;1.50;;;21.40;99.90;;;;;;5001504;28;20490;-83
2024/02/15 10:23:13;;;;;;;2.63;1.90;;;22.00;99.90;;;;;;5004441;28;20451;-82
2024/02/15 10:25:42;;;;;;;5.17;1.60;;;22.30;99.90;;;;;;5002588;28;21032;-81
2024/02/15 10:28:12;;;;;;;1.50;1.40;;;22.80;99.90;;;;;;5000013;28;20482;-81
2024/02/15 10:30:43;;;;;;;2.83;1.83;;;22.50;99.90;;;;;;4968065;28;1102836;-81
2024/02/15 10:33:20;;;;;;;1.97;1.60;;;23.30;99.90;;;;;;5001865;28;20542;-81
2024/02/15 10:35:49;;;;;;;1.87;1.73;;;23.50;99.90;;;;;;4988401;28;20549;-79
2024/02/15 10:38:18;;;;;;;2.80;2.03;;;24.10;99.90;;;;;;4996533;28;20495;-83
2024/02/15 10:40:47;;;;;;;2.70;1.30;;;24.80;99.90;;;;;;4997414;28;20465;-83
2024/02/15 10:43:18;;;;;;;1.40;1.30;;;25.40;99.90;;;;;;5002781;28;20870;-80
2024/02/15 10:45:49;;;;;;;1.60;1.50;;;26.40;99.90;;;;;;5003826;28;20462;-84
2024/02/15 10:48:17;;;;;;;3.40;1.57;;;27.30;99.90;;;;;;4988328;28;20527;-81
2024/02/15 10:50:49;;;;;;;2.03;1.70;;;27.90;99.90;;;;;;5001926;28;20502;-82
2024/02/15 10:53:27;;;;;;;1.90;1.80;;;28.10;99.90;;;;;;5002924;28;20486;-82
2024/02/15 10:56:03;;;;;;;3.37;2.00;;;29.40;99.90;;;;;;4999108;28;20579;-82
2024/02/15 10:58:35;;;;;;;3.53;1.90;;;29.70;99.90;;;;;;5003657;28;20470;-81
2024/02/15 11:01:09;;;;;;;2.03;1.60;;;30.40;99.90;;;;;;5006582;28;20535;-82
2024/02/15 11:03:41;;;;;;;1.40;1.30;;;29.80;99.90;;;;;;5002351;28;20948;-83
2024/02/15 11:06:12;;;;;;;1.43;1.33;;;30.30;99.90;;;;;;5004706;28;20485;-82
2024/02/15 11:08:41;;;;;;;3.13;1.50;;;29.90;99.90;;;;;;5005072;28;20481;-80
2024/02/15 11:11:11;;;;;;;1.40;1.30;;;28.80;99.90;;;;;;5004561;28;20456;-83
2024/02/15 11:13:40;;;;;;;1.50;1.37;;;28.00;99.90;;;;;;5003568;28;20536;-79
2024/02/15 11:16:09;;;;;;;1.60;1.50;;;27.50;99.90;;;;;;5005199;28;20484;-80
2024/02/15 11:18:48;;;;;;;1.30;1.20;;;28.30;99.90;;;;;;4999900;28;20484;-82
2024/02/15 11:21:18;;;;;;;1.87;1.40;;;29.20;99.90;;;;;;5007282;28;20459;-80
2024/02/15 11:23:46;;;;;;;2.50;1.10;;;29.40;99.90;;;;;;5004898;28;20548;-80
2024/02/15 11:26:47;;;;;;;1.90;1.47;;;28.70;99.90;;;;;;5002539;28;20484;-82
2024/02/15 11:29:51;;;;;;;2.50;1.30;;;27.80;99.90;;;;;;5001073;28;20529;-81
2024/02/15 11:32:39;;;;;;;1.50;1.40;;;28.00;99.90;;;;;;5003261;28;20456;-80
2024/02/15 11:35:12;;;;;;;1.50;1.40;;;27.50;99.90;;;;;;4989891;28;20976;-81
2024/02/15 11:37:55;;;;;;;1.33;1.30;;;27.60;99.90;;;;;;5005240;28;20452;-80
2024/02/15 11:40:27;;;;;;;1.40;1.30;;;26.80;99.90;;;;;;5009601;28;20491;-86
2024/02/15 11:42:57;;;;;;;2.93;1.33;;;25.00;99.90;;;;;;5006527;28;20469;-79
2024/02/15 11:45:26;;;;;;;1.30;1.30;;;23.40;99.90;;;;;;5003079;28;20493;-80
2024/02/15 11:47:55;;;;;;;1.80;1.63;;;22.60;99.90;;;;;;5003873;28;20473;-81
2024/02/15 11:50:25;;;;;;;1.20;1.20;;;22.10;99.90;;;;;;5004254;28;21424;-83
2024/02/15 11:52:53;;;;;;;1.47;1.40;;;21.50;99.90;;;;;;5002786;28;20442;-80
2024/02/15 11:55:23;;;;;;;1.57;1.40;;;20.90;99.90;;;;;;5008464;28;20455;-80
2024/02/15 11:58:04;;;;;;;1.60;1.50;;;20.60;99.90;;;;;;5004180;28;20466;-81
2024/02/15 12:20:24;;;;;;;3.13;1.50;;;19.30;99.90;;;;;;5004581;28;20527;-82
2024/02/15 12:22:53;;;;;;;3.17;1.70;;;19.20;99.90;;;;;;5005822;28;20457;-82
2024/02/15 12:25:24;;;;;;;1.80;1.70;;;19.00;99.90;;;;;;5005573;28;20455;-83
2024/02/15 12:27:54;;;;;;;1.60;1.50;;;18.80;99.90;;;;;;5004983;28;20569;-82
2024/02/15 12:30:25;;;;;;;1.93;1.83;;;18.80;99.90;;;;;;5002358;28;20450;-81
2024/02/15 12:33:09;;;;;;;1.50;1.40;;;18.50;98.80;;;;;;5005306;28;20458;-79
2024/02/15 12:35:39;;;;;;;1.73;1.63;;;18.60;99.30;;;;;;5004841;28;21226;-80
2024/02/15 12:38:08;;;;;;;1.90;1.80;;;18.70;99.90;;;;;;5006294;28;20513;-81
2024/02/15 12:40:38;;;;;;;1.50;1.50;;;18.70;99.90;;;;;;5000889;28;20447;-80
2024/02/15 12:43:10;;;;;;;1.70;1.60;;;18.80;99.90;;;;;;4986830;28;20461;-81
2024/02/15 12:45:40;;;;;;;1.60;1.50;;;18.80;99.90;;;;;;5001698;28;20563;-82
2024/02/15 12:48:10;;;;;;;2.40;2.20;;;18.90;99.90;;;;;;5003951;28;20509;-80
2024/02/15 12:50:40;;;;;;;2.70;1.80;;;18.90;99.90;;;;;;4999570;28;20944;-79
2024/02/15 12:53:09;;;;;;;1.77;1.67;;;18.90;99.90;;;;;;4999270;28;20451;-80
2024/02/15 12:55:39;;;;;;;1.70;1.60;;;19.00;99.90;;;;;;5002688;28;20459;-82
2024/02/15 12:58:14;;;;;;;1.93;1.70;;;19.00;99.90;;;;;;5002989;28;20457;-81
2024/02/15 13:00:44;;;;;;;4.20;1.50;;;19.00;99.90;;;;;;4983186;28;20461;-79
2024/02/15 13:03:14;;;;;;;1.80;1.70;;;18.90;99.90;;;;;;5003614;28;20826;-82
2024/02/15 13:05:45;;;;;;;6.07;2.67;;;18.90;99.90;;;;;;5006900;28;20447;-83
2024/02/15 13:08:14;;;;;;;1.60;1.50;;;18.80;99.90;;;;;;5012645;28;22914;-82
2024/02/15 13:10:43;;;;;;;1.60;1.50;;;18.80;99.90;;;;;;5009531;28;20767;-83
2024/02/15 13:13:13;;;;;;;1.60;1.50;;;18.70;99.90;;;;;;5010301;28;20544;-82
2024/02/15 13:15:43;;;;;;;2.17;1.70;;;18.60;99.90;;;;;;5007685;28;20520;-83
2024/02/15 13:18:13;;;;;;;2.87;2.70;;;18.40;99.90;;;;;;5008557;28;21293;-81
2024/02/15 13:20:43;;;;;;;1.73;1.63;;;18.30;99.90;;;;;;5006049;28;20508;-83
2024/02/15 13:23:19;;;;;;;4.47;4.00;;;18.20;99.90;;;;;;5007279;28;21035;-84
2024/02/15 13:25:48;;;;;;;2.40;2.30;;;18.30;99.90;;;;;;5002045;28;20450;-84
2024/02/15 13:28:17;;;;;;;1.80;1.70;;;18.30;99.90;;;;;;4998354;28;20493;-81
2024/02/15 13:30:45;;;;;;;1.70;1.60;;;18.30;99.90;;;;;;5002204;28;20457;-81
2024/02/15 13:33:14;;;;;;;3.10;2.30;;;18.30;99.90;;;;;;4999802;28;20438;-80